Sst Orleans — CFN5087 — position and weather

sailwx.info

Track history (hours):
 
Tides and Currents Weather Stations Pressure Air Temp Water Temp Dewpoint Dewpoint Depression Visibility Wind Speed Wind Dir Waves Ship Positions

Sst Orleans

Last reported at 2016-Jul-28 00:33 UTC. Time now 2016-Jul-28 00:57 UTC.
Position N 49°17' W 123°04'.

Length 29 m; draft 5.1 m.

Type: . MMSI: 316012721.

Date/timePositionNaut miles runAvg speedWind from/ knotsBaromVisibWave heightAir tempDewpointWater temp
2016-Jul-28 00:33N 49°17' W 123°04'3 2.5
2016-Jul-27 23:32N 49°18' W 123°07'3 2.6
2016-Jul-27 22:33N 49°17' W 123°04'0 0.0
2016-Jul-27 21:33N 49°17' W 123°04'0 0.0
2016-Jul-27 20:33N 49°17' W 123°04'0 0.0
2016-Jul-27 19:33N 49°17' W 123°04'0 0.0
2016-Jul-27 18:34N 49°17' W 123°04'0 0.0
2016-Jul-27 17:33N 49°17' W 123°04'0 0.0
2016-Jul-27 16:34N 49°17' W 123°04'0 0.0
2016-Jul-27 15:33N 49°17' W 123°04'0 0.0
2016-Jul-27 14:33N 49°17' W 123°04'0 0.0
2016-Jul-27 13:33N 49°17' W 123°04'0 0.0
2016-Jul-27 12:33N 49°17' W 123°04'0 0.0
2016-Jul-27 11:33N 49°17' W 123°04'0 0.0
2016-Jul-27 10:33N 49°17' W 123°04'0 0.0
2016-Jul-27 09:33N 49°17' W 123°04'0 0.0
2016-Jul-27 08:33N 49°17' W 123°04'0 0.0
2016-Jul-27 07:33N 49°17' W 123°04'0 0.0
2016-Jul-27 06:33N 49°17' W 123°04'0 0.0
2016-Jul-27 05:33N 49°17' W 123°04'0 0.0
2016-Jul-27 04:33N 49°17' W 123°04'0 0.0
2016-Jul-27 03:33N 49°17' W 123°04'0 0.0
2016-Jul-27 02:33N 49°17' W 123°04'0 0.0
2016-Jul-27 01:33N 49°17' W 123°04'0 0.0
2016-Jul-27 00:33N 49°17' W 123°04'0 0.0
2016-Jul-26 23:33N 49°17' W 123°04'0 0.0
2016-Jul-26 22:33N 49°17' W 123°04'0 0.0
2016-Jul-26 21:33N 49°17' W 123°04'0 0.0
2016-Jul-26 20:33N 49°17' W 123°04'0 0.0
2016-Jul-26 19:33N 49°17' W 123°04'0 0.0
2016-Jul-26 18:33N 49°17' W 123°04'0 0.0
2016-Jul-26 17:33N 49°17' W 123°04'0 0.0
2016-Jul-26 16:33N 49°17' W 123°04'0 0.0
2016-Jul-26 15:33N 49°17' W 123°04'0 0.0
2016-Jul-26 14:34N 49°17' W 123°04'1 1.4
2016-Jul-26 13:34N 49°17' W 123°06'2 1.8
2016-Jul-26 12:33N 49°19' W 123°08'3 2.9
2016-Jul-26 11:33N 49°17' W 123°04'0 0.0
2016-Jul-26 10:33N 49°17' W 123°04'0 0.0
2016-Jul-26 09:33N 49°17' W 123°04'0 0.0
2016-Jul-26 08:33N 49°17' W 123°04'0 0.0
2016-Jul-26 07:33N 49°17' W 123°04'0 0.0
2016-Jul-26 06:33N 49°17' W 123°04'0 0.0
2016-Jul-26 05:33N 49°17' W 123°04'0 0.0
2016-Jul-26 04:33N 49°17' W 123°04'0 0.0
2016-Jul-26 03:33N 49°17' W 123°04'7 7.4
2016-Jul-26 02:34N 49°18' W 123°15'1111.3
2016-Jul-26 01:33N 49°07' W 123°20'1211.7
2016-Jul-26 00:34N 48°56' W 123°17'1410.9
2016-Jul-25 23:17N 48°42' W 123°16'811.4
2016-Jul-25 22:34N 48°34' W 123°12'10 9.7
2016-Jul-25 21:33N 48°24' W 123°11'9 8.9
2016-Jul-25 20:33N 48°22' W 123°24'9 9.2
2016-Jul-25 19:34N 48°26' W 123°12'1111.2
2016-Jul-25 18:34N 48°37' W 123°14'8 8.3
2016-Jul-25 17:33N 48°44' W 123°08'7 7.5
2016-Jul-25 16:34N 48°51' W 123°04'1111.3
2016-Jul-25 15:34N 48°59' W 123°17'1111.3
2016-Jul-25 14:33N 49°09' W 123°23'1111.1
2016-Jul-25 13:34N 49°19' W 123°15'7 6.8
2016-Jul-25 12:33N 49°18' W 123°05'5 5.0
2016-Jul-25 11:33N 49°18' W 122°57'0 0.2
2016-Jul-25 10:34N 49°18' W 122°57'4 4.2
2016-Jul-25 09:34N 49°17' W 123°04'0 0.0
2016-Jul-25 08:33N 49°17' W 123°04'0 0.0
2016-Jul-25 07:33N 49°17' W 123°04'0 0.0
2016-Jul-25 06:33N 49°17' W 123°04'1 1.0
2016-Jul-25 05:34N 49°18' W 123°02'0 0.3
2016-Jul-25 04:33N 49°18' W 123°02'1 1.1
2016-Jul-25 03:33N 49°17' W 123°04'0 0.0
2016-Jul-25 02:34N 49°17' W 123°04'0 0.0
2016-Jul-25 01:34N 49°17' W 123°04'0 0.0
2016-Jul-25 00:34N 49°17' W 123°04'0 0.0
2016-Jul-24 23:34N 49°17' W 123°04'0 0.0
2016-Jul-24 22:34N 49°17' W 123°04'0 0.0
2016-Jul-24 21:34N 49°17' W 123°04'0 0.0
2016-Jul-24 20:33N 49°17' W 123°04'0 0.0
2016-Jul-24 19:33N 49°17' W 123°04'0 0.0
2016-Jul-24 18:33N 49°17' W 123°04'0 0.0
2016-Jul-24 17:34N 49°17' W 123°04'0 0.0
2016-Jul-24 16:34N 49°17' W 123°04'0 0.0
2016-Jul-24 15:33N 49°17' W 123°04'0 0.0
2016-Jul-24 14:33N 49°17' W 123°04'0 0.0
2016-Jul-24 13:33N 49°17' W 123°04'0 0.0
2016-Jul-24 12:34N 49°17' W 123°04'0 0.0
2016-Jul-24 11:33N 49°17' W 123°04'0 0.0
2016-Jul-24 10:34N 49°17' W 123°04'0 0.0
2016-Jul-24 09:34N 49°17' W 123°04'0 0.0
2016-Jul-24 08:33N 49°17' W 123°04'0 0.0
2016-Jul-24 07:33N 49°17' W 123°04'0 0.0
2016-Jul-24 06:33N 49°17' W 123°04'0 0.0
2016-Jul-24 05:34N 49°17' W 123°04'0 0.0
2016-Jul-24 04:33N 49°17' W 123°04'0 0.0
2016-Jul-24 03:33N 49°17' W 123°04'0 0.0
2016-Jul-24 02:34N 49°17' W 123°04'0 0.0
2016-Jul-24 01:33N 49°17' W 123°04'0 0.0
2016-Jul-24 00:33N 49°17' W 123°04'0 0.0
2016-Jul-23 23:33N 49°17' W 123°04'0 0.0
2016-Jul-23 22:33N 49°17' W 123°04'0 0.0
2016-Jul-23 21:33N 49°17' W 123°04'0 0.0
2016-Jul-23 20:34N 49°17' W 123°04'0 0.0
2016-Jul-23 19:34N 49°17' W 123°04'0 0.0
2016-Jul-23 18:34N 49°17' W 123°04'0 0.0
2016-Jul-23 17:34N 49°17' W 123°04'0 0.0
2016-Jul-23 16:34N 49°17' W 123°04'0 0.0
2016-Jul-23 15:34N 49°17' W 123°04'0 0.0
2016-Jul-23 14:33N 49°17' W 123°04'0 0.0
2016-Jul-23 13:33N 49°17' W 123°04'1 1.4
2016-Jul-23 12:34N 49°17' W 123°06'2 1.7
2016-Jul-23 11:33N 49°19' W 123°08'0 0.2
2016-Jul-23 10:34N 49°19' W 123°07'4 3.6
2016-Jul-23 09:33N 49°18' W 123°02'1 1.1
2016-Jul-23 08:34N 49°17' W 123°04'0 0.0
2016-Jul-23 07:33N 49°17' W 123°04'0 0.0
2016-Jul-23 06:34N 49°17' W 123°04'0 0.0
2016-Jul-23 04:34N 49°17' W 123°04'0 0.0
2016-Jul-23 03:34N 49°17' W 123°04'0 0.0
2016-Jul-23 02:34N 49°17' W 123°04'0 0.0
2016-Jul-23 01:34N 49°17' W 123°04'0 0.0
2016-Jul-23 00:33N 49°17' W 123°04'0 0.0
2016-Jul-22 23:33N 49°17' W 123°04'0 0.0
2016-Jul-22 22:34N 49°17' W 123°04'0 0.4
2016-Jul-22 21:33N 49°18' W 123°03'0 0.4
2016-Jul-22 20:33N 49°17' W 123°04'0 0.0
2016-Jul-22 19:33N 49°17' W 123°04'0 0.0
2016-Jul-22 18:34N 49°17' W 123°04'0 0.0
2016-Jul-22 17:34N 49°17' W 123°04'0 0.0
2016-Jul-22 16:33N 49°17' W 123°04'0 0.0
2016-Jul-22 15:34N 49°17' W 123°04'0 0.0
2016-Jul-22 14:33N 49°17' W 123°04'6 6.2
2016-Jul-22 13:33N 49°18' W 122°54'2 1.7
2016-Jul-22 12:33N 49°18' W 122°57'5 4.5
2016-Jul-22 11:33N 49°17' W 123°04'0 0.0
2016-Jul-22 10:34N 49°17' W 123°04'0 0.0
2016-Jul-22 09:34N 49°17' W 123°04'0 0.0
2016-Jul-22 08:33N 49°17' W 123°04'0 0.0
2016-Jul-22 07:34N 49°17' W 123°04'3 1.4
2016-Jul-22 05:33N 49°18' W 123°08'0 0.2
2016-Jul-22 04:33N 49°19' W 123°08'0 0.0
2016-Jul-22 03:33N 49°19' W 123°08'3 2.8
2016-Jul-22 02:34N 49°17' W 123°04'0 0.0
2016-Jul-22 01:33N 49°17' W 123°04'0 0.0
2016-Jul-22 00:33N 49°17' W 123°04'0 0.0
2016-Jul-21 23:34N 49°17' W 123°04'1 0.8
2016-Jul-21 22:33N 49°18' W 123°03'2 1.6
2016-Jul-21 21:33N 49°18' W 123°06'2 1.6
2016-Jul-21 20:33N 49°18' W 123°03'1 0.8
2016-Jul-21 19:34N 49°17' W 123°04'0 0.0
2016-Jul-21 18:33N 49°17' W 123°04'0 0.0
2016-Jul-21 17:33N 49°17' W 123°04'0 0.0
2016-Jul-21 16:33N 49°17' W 123°04'0 0.4
2016-Jul-21 15:33N 49°17' W 123°04'0 0.5
2016-Jul-21 14:32N 49°18' W 123°05'1 0.5
2016-Jul-21 13:32N 49°18' W 123°06'1 0.7
2016-Jul-21 12:33N 49°17' W 123°05'1 0.8
2016-Jul-21 11:33N 49°17' W 123°04'0 0.0
2016-Jul-21 10:32N 49°17' W 123°04'0 0.0
2016-Jul-21 09:33N 49°17' W 123°04'0 0.0
2016-Jul-21 08:33N 49°17' W 123°04'0 0.0
2016-Jul-21 07:31N 49°17' W 123°04'0 0.0
2016-Jul-21 06:23N 49°17' W 123°04'0 0.0
2016-Jul-21 05:28N 49°17' W 123°04'0 0.0
2016-Jul-21 04:31N 49°17' W 123°04'0 0.0
2016-Jul-21 03:33N 49°17' W 123°04'0 0.0
2016-Jul-21 02:34N 49°17' W 123°04'0 0.0
2016-Jul-21 01:34N 49°17' W 123°04'0 0.0
2016-Jul-21 00:34N 49°17' W 123°04'0 0.0
2016-Jul-20 23:33N 49°17' W 123°04'2 2.2
2016-Jul-20 22:33N 49°18' W 123°07'2 2.2
2016-Jul-20 21:34N 49°17' W 123°04'1 1.4
2016-Jul-20 20:33N 49°18' W 123°02'1 1.4
2016-Jul-20 19:33N 49°17' W 123°04'0 0.0
2016-Jul-20 18:34N 49°17' W 123°04'0 0.0
2016-Jul-20 17:34N 49°17' W 123°04'0 0.0
2016-Jul-20 16:34N 49°17' W 123°04'0 0.0
2016-Jul-20 15:34N 49°17' W 123°04'0 0.0
2016-Jul-20 14:33N 49°17' W 123°04'0 0.0
2016-Jul-20 13:33N 49°17' W 123°04'0 0.0
2016-Jul-20 12:33N 49°17' W 123°04'0 0.0
2016-Jul-20 11:33N 49°17' W 123°04'0 0.0
2016-Jul-20 10:33N 49°17' W 123°04'0 0.0
2016-Jul-20 09:34N 49°17' W 123°04'0 0.0
2016-Jul-20 08:33N 49°17' W 123°04'0 0.0
2016-Jul-20 07:33N 49°17' W 123°04'0 0.0
2016-Jul-20 06:34N 49°17' W 123°04'0 0.0
2016-Jul-20 05:33N 49°17' W 123°04'0 0.0
2016-Jul-20 04:34N 49°17' W 123°04'0 0.0
2016-Jul-20 03:33N 49°17' W 123°04'0 0.0
2016-Jul-20 02:34N 49°17' W 123°04'0 0.0
2016-Jul-20 01:34N 49°17' W 123°04'0 0.0
2016-Jul-20 00:33N 49°17' W 123°04'0 0.0
2016-Jul-19 23:33N 49°17' W 123°04'0 0.0
2016-Jul-19 22:33N 49°17' W 123°04'0 0.0
2016-Jul-19 21:33N 49°17' W 123°04'0 0.0
2016-Jul-19 20:34N 49°17' W 123°04'1 0.8
2016-Jul-19 19:33N 49°18' W 123°03'1 0.8
2016-Jul-19 18:33N 49°17' W 123°04'0 0.0
2016-Jul-19 17:33N 49°17' W 123°04'0 0.0
2016-Jul-19 16:33N 49°17' W 123°04'0 0.0
2016-Jul-19 15:33N 49°17' W 123°04'0 0.0
2016-Jul-19 14:34N 49°17' W 123°04'0 0.0
2016-Jul-19 13:33N 49°17' W 123°04'0 0.0
2016-Jul-19 12:33N 49°17' W 123°04'0 0.0
2016-Jul-19 11:33N 49°17' W 123°04'0 0.0
2016-Jul-19 10:34N 49°17' W 123°04'0 0.0
2016-Jul-19 09:34N 49°17' W 123°04'0 0.0
2016-Jul-19 08:34N 49°17' W 123°04'0 0.0
2016-Jul-19 07:33N 49°17' W 123°04'0 0.0
2016-Jul-19 04:34N 49°17' W 123°04'0 0.0
2016-Jul-19 03:34N 49°17' W 123°04'0 0.0
2016-Jul-19 02:34N 49°17' W 123°04'0 0.0
2016-Jul-19 01:34N 49°17' W 123°04'0 0.0
2016-Jul-19 00:34N 49°17' W 123°04'0 0.0
2016-Jul-18 23:34N 49°17' W 123°04'0 0.0
2016-Jul-18 22:33N 49°17' W 123°04'5 5.2
2016-Jul-18 21:33N 49°18' W 122°56'2 2.4
2016-Jul-18 20:33N 49°17' W 122°52'1 1.2
2016-Jul-18 19:34N 49°18' W 122°54'6 6.5
2016-Jul-18 18:34N 49°18' W 123°04'0 0.3
2016-Jul-18 17:34N 49°17' W 123°04'0 0.0
2016-Jul-18 16:34N 49°17' W 123°04'0 0.0
2016-Jul-18 15:34N 49°17' W 123°04'0 0.0
2016-Jul-18 14:34N 49°17' W 123°04'7 6.5
2016-Jul-18 13:34N 49°19' W 123°13'8 8.1
2016-Jul-18 12:33N 49°26' W 123°20'8 7.3
2016-Jul-18 11:28N 49°31' W 123°29'1 1.4
2016-Jul-18 10:33N 49°30' W 123°28'5 4.6
2016-Jul-18 09:34N 49°25' W 123°26'8 7.6
2016-Jul-18 08:33N 49°21' W 123°17'9 9.4
2016-Jul-18 07:34N 49°18' W 123°04'0 0.2
2016-Jul-18 06:33N 49°17' W 123°04'0 0.0
2016-Jul-18 05:34N 49°17' W 123°04'2 2.4
2016-Jul-18 04:34N 49°19' W 123°07'1 0.7
2016-Jul-18 03:34N 49°19' W 123°08'3 3.1
2016-Jul-18 02:34N 49°17' W 123°04'0 0.0
2016-Jul-18 01:34N 49°17' W 123°04'0 0.0
2016-Jul-18 00:34N 49°17' W 123°04'  
Track history (hours):
 
Tides and Currents Weather Stations Pressure Air Temp Water Temp Dewpoint Dewpoint Depression Visibility Wind Speed Wind Dir Waves Ship Positions

Sst Orleans

Last reported at 2016-Jul-28 00:33 UTC. Time now 2016-Jul-28 00:57 UTC.
Position N 49°17' W 123°04'.

Length 29 m; draft 5.1 m.

Type: . MMSI: 316012721.

Date/timePositionNaut miles runAvg speedWind from/ knotsBaromVisibWave heightAir tempDewpointWater temp
2016-Jul-28 00:33N 49°17' W 123°04'3 2.5
2016-Jul-27 23:32N 49°18' W 123°07'3 2.6
2016-Jul-27 22:33N 49°17' W 123°04'0 0.0
2016-Jul-27 21:33N 49°17' W 123°04'0 0.0
2016-Jul-27 20:33N 49°17' W 123°04'0 0.0
2016-Jul-27 19:33N 49°17' W 123°04'0 0.0
2016-Jul-27 18:34N 49°17' W 123°04'0 0.0
2016-Jul-27 17:33N 49°17' W 123°04'0 0.0
2016-Jul-27 16:34N 49°17' W 123°04'0 0.0
2016-Jul-27 15:33N 49°17' W 123°04'0 0.0
2016-Jul-27 14:33N 49°17' W 123°04'0 0.0
2016-Jul-27 13:33N 49°17' W 123°04'0 0.0
2016-Jul-27 12:33N 49°17' W 123°04'0 0.0
2016-Jul-27 11:33N 49°17' W 123°04'0 0.0
2016-Jul-27 10:33N 49°17' W 123°04'0 0.0
2016-Jul-27 09:33N 49°17' W 123°04'0 0.0
2016-Jul-27 08:33N 49°17' W 123°04'0 0.0
2016-Jul-27 07:33N 49°17' W 123°04'0 0.0
2016-Jul-27 06:33N 49°17' W 123°04'0 0.0
2016-Jul-27 05:33N 49°17' W 123°04'0 0.0
2016-Jul-27 04:33N 49°17' W 123°04'0 0.0
2016-Jul-27 03:33N 49°17' W 123°04'0 0.0
2016-Jul-27 02:33N 49°17' W 123°04'0 0.0
2016-Jul-27 01:33N 49°17' W 123°04'0 0.0
2016-Jul-27 00:33N 49°17' W 123°04'0 0.0
2016-Jul-26 23:33N 49°17' W 123°04'0 0.0
2016-Jul-26 22:33N 49°17' W 123°04'0 0.0
2016-Jul-26 21:33N 49°17' W 123°04'0 0.0
2016-Jul-26 20:33N 49°17' W 123°04'0 0.0
2016-Jul-26 19:33N 49°17' W 123°04'0 0.0
2016-Jul-26 18:33N 49°17' W 123°04'0 0.0
2016-Jul-26 17:33N 49°17' W 123°04'0 0.0
2016-Jul-26 16:33N 49°17' W 123°04'0 0.0
2016-Jul-26 15:33N 49°17' W 123°04'0 0.0
2016-Jul-26 14:34N 49°17' W 123°04'1 1.4
2016-Jul-26 13:34N 49°17' W 123°06'2 1.8
2016-Jul-26 12:33N 49°19' W 123°08'3 2.9
2016-Jul-26 11:33N 49°17' W 123°04'0 0.0
2016-Jul-26 10:33N 49°17' W 123°04'0 0.0
2016-Jul-26 09:33N 49°17' W 123°04'0 0.0
2016-Jul-26 08:33N 49°17' W 123°04'0 0.0
2016-Jul-26 07:33N 49°17' W 123°04'0 0.0
2016-Jul-26 06:33N 49°17' W 123°04'0 0.0
2016-Jul-26 05:33N 49°17' W 123°04'0 0.0
2016-Jul-26 04:33N 49°17' W 123°04'0 0.0
2016-Jul-26 03:33N 49°17' W 123°04'7 7.4
2016-Jul-26 02:34N 49°18' W 123°15'1111.3
2016-Jul-26 01:33N 49°07' W 123°20'1211.7
2016-Jul-26 00:34N 48°56' W 123°17'1410.9
2016-Jul-25 23:17N 48°42' W 123°16'811.4
2016-Jul-25 22:34N 48°34' W 123°12'10 9.7
2016-Jul-25 21:33N 48°24' W 123°11'9 8.9
2016-Jul-25 20:33N 48°22' W 123°24'9 9.2
2016-Jul-25 19:34N 48°26' W 123°12'1111.2
2016-Jul-25 18:34N 48°37' W 123°14'8 8.3
2016-Jul-25 17:33N 48°44' W 123°08'7 7.5
2016-Jul-25 16:34N 48°51' W 123°04'1111.3
2016-Jul-25 15:34N 48°59' W 123°17'1111.3
2016-Jul-25 14:33N 49°09' W 123°23'1111.1
2016-Jul-25 13:34N 49°19' W 123°15'7 6.8
2016-Jul-25 12:33N 49°18' W 123°05'5 5.0
2016-Jul-25 11:33N 49°18' W 122°57'0 0.2
2016-Jul-25 10:34N 49°18' W 122°57'4 4.2
2016-Jul-25 09:34N 49°17' W 123°04'0 0.0
2016-Jul-25 08:33N 49°17' W 123°04'0 0.0
2016-Jul-25 07:33N 49°17' W 123°04'0 0.0
2016-Jul-25 06:33N 49°17' W 123°04'1 1.0
2016-Jul-25 05:34N 49°18' W 123°02'0 0.3
2016-Jul-25 04:33N 49°18' W 123°02'1 1.1
2016-Jul-25 03:33N 49°17' W 123°04'0 0.0
2016-Jul-25 02:34N 49°17' W 123°04'0 0.0
2016-Jul-25 01:34N 49°17' W 123°04'0 0.0
2016-Jul-25 00:34N 49°17' W 123°04'0 0.0
2016-Jul-24 23:34N 49°17' W 123°04'0 0.0
2016-Jul-24 22:34N 49°17' W 123°04'0 0.0
2016-Jul-24 21:34N 49°17' W 123°04'0 0.0
2016-Jul-24 20:33N 49°17' W 123°04'0 0.0
2016-Jul-24 19:33N 49°17' W 123°04'0 0.0
2016-Jul-24 18:33N 49°17' W 123°04'0 0.0
2016-Jul-24 17:34N 49°17' W 123°04'0 0.0
2016-Jul-24 16:34N 49°17' W 123°04'0 0.0
2016-Jul-24 15:33N 49°17' W 123°04'0 0.0
2016-Jul-24 14:33N 49°17' W 123°04'0 0.0
2016-Jul-24 13:33N 49°17' W 123°04'0 0.0
2016-Jul-24 12:34N 49°17' W 123°04'0 0.0
2016-Jul-24 11:33N 49°17' W 123°04'0 0.0
2016-Jul-24 10:34N 49°17' W 123°04'0 0.0
2016-Jul-24 09:34N 49°17' W 123°04'0 0.0
2016-Jul-24 08:33N 49°17' W 123°04'0 0.0
2016-Jul-24 07:33N 49°17' W 123°04'0 0.0
2016-Jul-24 06:33N 49°17' W 123°04'0 0.0
2016-Jul-24 05:34N 49°17' W 123°04'0 0.0
2016-Jul-24 04:33N 49°17' W 123°04'0 0.0
2016-Jul-24 03:33N 49°17' W 123°04'0 0.0
2016-Jul-24 02:34N 49°17' W 123°04'0 0.0
2016-Jul-24 01:33N 49°17' W 123°04'0 0.0
2016-Jul-24 00:33N 49°17' W 123°04'0 0.0
2016-Jul-23 23:33N 49°17' W 123°04'0 0.0
2016-Jul-23 22:33N 49°17' W 123°04'0 0.0
2016-Jul-23 21:33N 49°17' W 123°04'0 0.0
2016-Jul-23 20:34N 49°17' W 123°04'0 0.0
2016-Jul-23 19:34N 49°17' W 123°04'0 0.0
2016-Jul-23 18:34N 49°17' W 123°04'0 0.0
2016-Jul-23 17:34N 49°17' W 123°04'0 0.0
2016-Jul-23 16:34N 49°17' W 123°04'0 0.0
2016-Jul-23 15:34N 49°17' W 123°04'0 0.0
2016-Jul-23 14:33N 49°17' W 123°04'0 0.0
2016-Jul-23 13:33N 49°17' W 123°04'1 1.4
2016-Jul-23 12:34N 49°17' W 123°06'2 1.7
2016-Jul-23 11:33N 49°19' W 123°08'0 0.2
2016-Jul-23 10:34N 49°19' W 123°07'4 3.6
2016-Jul-23 09:33N 49°18' W 123°02'1 1.1
2016-Jul-23 08:34N 49°17' W 123°04'0 0.0
2016-Jul-23 07:33N 49°17' W 123°04'0 0.0
2016-Jul-23 06:34N 49°17' W 123°04'0 0.0
2016-Jul-23 04:34N 49°17' W 123°04'0 0.0
2016-Jul-23 03:34N 49°17' W 123°04'0 0.0
2016-Jul-23 02:34N 49°17' W 123°04'0 0.0
2016-Jul-23 01:34N 49°17' W 123°04'0 0.0
2016-Jul-23 00:33N 49°17' W 123°04'0 0.0
2016-Jul-22 23:33N 49°17' W 123°04'0 0.0
2016-Jul-22 22:34N 49°17' W 123°04'0 0.4
2016-Jul-22 21:33N 49°18' W 123°03'0 0.4
2016-Jul-22 20:33N 49°17' W 123°04'0 0.0
2016-Jul-22 19:33N 49°17' W 123°04'0 0.0
2016-Jul-22 18:34N 49°17' W 123°04'0 0.0
2016-Jul-22 17:34N 49°17' W 123°04'0 0.0
2016-Jul-22 16:33N 49°17' W 123°04'0 0.0
2016-Jul-22 15:34N 49°17' W 123°04'0 0.0
2016-Jul-22 14:33N 49°17' W 123°04'6 6.2
2016-Jul-22 13:33N 49°18' W 122°54'2 1.7
2016-Jul-22 12:33N 49°18' W 122°57'5 4.5
2016-Jul-22 11:33N 49°17' W 123°04'0 0.0
2016-Jul-22 10:34N 49°17' W 123°04'0 0.0
2016-Jul-22 09:34N 49°17' W 123°04'0 0.0
2016-Jul-22 08:33N 49°17' W 123°04'0 0.0
2016-Jul-22 07:34N 49°17' W 123°04'3 1.4
2016-Jul-22 05:33N 49°18' W 123°08'0 0.2
2016-Jul-22 04:33N 49°19' W 123°08'0 0.0
2016-Jul-22 03:33N 49°19' W 123°08'3 2.8
2016-Jul-22 02:34N 49°17' W 123°04'0 0.0
2016-Jul-22 01:33N 49°17' W 123°04'0 0.0
2016-Jul-22 00:33N 49°17' W 123°04'0 0.0
2016-Jul-21 23:34N 49°17' W 123°04'1 0.8
2016-Jul-21 22:33N 49°18' W 123°03'2 1.6
2016-Jul-21 21:33N 49°18' W 123°06'2 1.6
2016-Jul-21 20:33N 49°18' W 123°03'1 0.8
2016-Jul-21 19:34N 49°17' W 123°04'0 0.0
2016-Jul-21 18:33N 49°17' W 123°04'0 0.0
2016-Jul-21 17:33N 49°17' W 123°04'0 0.0
2016-Jul-21 16:33N 49°17' W 123°04'0 0.4
2016-Jul-21 15:33N 49°17' W 123°04'0 0.5
2016-Jul-21 14:32N 49°18' W 123°05'1 0.5
2016-Jul-21 13:32N 49°18' W 123°06'1 0.7
2016-Jul-21 12:33N 49°17' W 123°05'1 0.8
2016-Jul-21 11:33N 49°17' W 123°04'0 0.0
2016-Jul-21 10:32N 49°17' W 123°04'0 0.0
2016-Jul-21 09:33N 49°17' W 123°04'0 0.0
2016-Jul-21 08:33N 49°17' W 123°04'0 0.0
2016-Jul-21 07:31N 49°17' W 123°04'0 0.0
2016-Jul-21 06:23N 49°17' W 123°04'0 0.0
2016-Jul-21 05:28N 49°17' W 123°04'0 0.0
2016-Jul-21 04:31N 49°17' W 123°04'0 0.0
2016-Jul-21 03:33N 49°17' W 123°04'0 0.0
2016-Jul-21 02:34N 49°17' W 123°04'0 0.0
2016-Jul-21 01:34N 49°17' W 123°04'0 0.0
2016-Jul-21 00:34N 49°17' W 123°04'0 0.0
2016-Jul-20 23:33N 49°17' W 123°04'2 2.2
2016-Jul-20 22:33N 49°18' W 123°07'2 2.2
2016-Jul-20 21:34N 49°17' W 123°04'1 1.4
2016-Jul-20 20:33N 49°18' W 123°02'1 1.4
2016-Jul-20 19:33N 49°17' W 123°04'0 0.0
2016-Jul-20 18:34N 49°17' W 123°04'0 0.0
2016-Jul-20 17:34N 49°17' W 123°04'0 0.0
2016-Jul-20 16:34N 49°17' W 123°04'0 0.0
2016-Jul-20 15:34N 49°17' W 123°04'0 0.0
2016-Jul-20 14:33N 49°17' W 123°04'0 0.0
2016-Jul-20 13:33N 49°17' W 123°04'0 0.0
2016-Jul-20 12:33N 49°17' W 123°04'0 0.0
2016-Jul-20 11:33N 49°17' W 123°04'0 0.0
2016-Jul-20 10:33N 49°17' W 123°04'0 0.0
2016-Jul-20 09:34N 49°17' W 123°04'0 0.0
2016-Jul-20 08:33N 49°17' W 123°04'0 0.0
2016-Jul-20 07:33N 49°17' W 123°04'0 0.0
2016-Jul-20 06:34N 49°17' W 123°04'0 0.0
2016-Jul-20 05:33N 49°17' W 123°04'0 0.0
2016-Jul-20 04:34N 49°17' W 123°04'0 0.0
2016-Jul-20 03:33N 49°17' W 123°04'0 0.0
2016-Jul-20 02:34N 49°17' W 123°04'0 0.0
2016-Jul-20 01:34N 49°17' W 123°04'0 0.0
2016-Jul-20 00:33N 49°17' W 123°04'0 0.0
2016-Jul-19 23:33N 49°17' W 123°04'0 0.0
2016-Jul-19 22:33N 49°17' W 123°04'0 0.0
2016-Jul-19 21:33N 49°17' W 123°04'0 0.0
2016-Jul-19 20:34N 49°17' W 123°04'1 0.8
2016-Jul-19 19:33N 49°18' W 123°03'1 0.8
2016-Jul-19 18:33N 49°17' W 123°04'0 0.0
2016-Jul-19 17:33N 49°17' W 123°04'0 0.0
2016-Jul-19 16:33N 49°17' W 123°04'0 0.0
2016-Jul-19 15:33N 49°17' W 123°04'0 0.0
2016-Jul-19 14:34N 49°17' W 123°04'0 0.0
2016-Jul-19 13:33N 49°17' W 123°04'0 0.0
2016-Jul-19 12:33N 49°17' W 123°04'0 0.0
2016-Jul-19 11:33N 49°17' W 123°04'0 0.0
2016-Jul-19 10:34N 49°17' W 123°04'0 0.0
2016-Jul-19 09:34N 49°17' W 123°04'0 0.0
2016-Jul-19 08:34N 49°17' W 123°04'0 0.0
2016-Jul-19 07:33N 49°17' W 123°04'0 0.0
2016-Jul-19 04:34N 49°17' W 123°04'0 0.0
2016-Jul-19 03:34N 49°17' W 123°04'0 0.0
2016-Jul-19 02:34N 49°17' W 123°04'0 0.0
2016-Jul-19 01:34N 49°17' W 123°04'0 0.0
2016-Jul-19 00:34N 49°17' W 123°04'0 0.0
2016-Jul-18 23:34N 49°17' W 123°04'0 0.0
2016-Jul-18 22:33N 49°17' W 123°04'5 5.2
2016-Jul-18 21:33N 49°18' W 122°56'2 2.4
2016-Jul-18 20:33N 49°17' W 122°52'1 1.2
2016-Jul-18 19:34N 49°18' W 122°54'6 6.5
2016-Jul-18 18:34N 49°18' W 123°04'0 0.3
2016-Jul-18 17:34N 49°17' W 123°04'0 0.0
2016-Jul-18 16:34N 49°17' W 123°04'0 0.0
2016-Jul-18 15:34N 49°17' W 123°04'0 0.0
2016-Jul-18 14:34N 49°17' W 123°04'7 6.5
2016-Jul-18 13:34N 49°19' W 123°13'8 8.1
2016-Jul-18 12:33N 49°26' W 123°20'8 7.3
2016-Jul-18 11:28N 49°31' W 123°29'1 1.4
2016-Jul-18 10:33N 49°30' W 123°28'5 4.6
2016-Jul-18 09:34N 49°25' W 123°26'8 7.6
2016-Jul-18 08:33N 49°21' W 123°17'9 9.4
2016-Jul-18 07:34N 49°18' W 123°04'0 0.2
2016-Jul-18 06:33N 49°17' W 123°04'0 0.0
2016-Jul-18 05:34N 49°17' W 123°04'2 2.4
2016-Jul-18 04:34N 49°19' W 123°07'1 0.7
2016-Jul-18 03:34N 49°19' W 123°08'3 3.1
2016-Jul-18 02:34N 49°17' W 123°04'0 0.0
2016-Jul-18 01:34N 49°17' W 123°04'0 0.0
2016-Jul-18 00:34N 49°17' W 123°04'  

Dump ship's entire track history